Superfast Baleares — EBXD — position and weather

sailwx.info

Track history (hours):
 
Tides and Currents Weather Stations Pressure Air Temp Water Temp Dewpoint Dewpoint Depression Visibility Wind Speed Wind Dir Waves Ship Positions

Superfast Baleares

Last reported at 2014-Sep-02 20:19 UTC. Time now 2014-Sep-02 21:15 UTC.
Position N 41°02' E 002°15'.

Length 210 m; draft 6.2 m.

Type: Ship (hazmat cat A). MMSI: 225405000.

Date/timePositionNaut miles runAvg speedWind from/ knotsBaromVisibWave heightAir tempDewpointWater temp
2014-Sep-02 20:19N 41°02' E 002°15'8 9.8
2014-Sep-02 19:31N 41°10' E 002°15'1110.2
2014-Sep-02 18:28N 41°20' E 002°13'2 2.2
2014-Sep-02 17:29N 41°22' E 002°11'0 0.0
2014-Sep-02 14:25N 41°22' E 002°11'89 6.0
2014-Sep-01 23:32N 39°54' E 001°53'3114.3
2014-Sep-01 21:23N 39°24' E 001°47'1411.6
2014-Sep-01 20:12N 39°10' E 001°44'1910.8
2014-Sep-01 18:28N 38°55' E 001°30'3 2.9
2014-Sep-01 17:32N 38°54' E 001°27'  
2014-Aug-30 06:05N 38°54' E 001°27'2 4.6
2014-Aug-30 05:33N 38°54' E 001°30'4 3.9
2014-Aug-30 04:34N 38°56' E 001°34'10 9.6
2014-Aug-30 03:33N 39°02' E 001°45'10 9.8
2014-Aug-30 02:33N 39°07' E 001°55'1010.1
2014-Aug-30 01:33N 39°13' E 002°05'1010.1
2014-Aug-30 00:34N 39°19' E 002°16'10 9.9
2014-Aug-29 23:33N 39°23' E 002°27'10 9.9
2014-Aug-29 22:33N 39°30' E 002°37'4 3.7
2014-Aug-29 21:33N 39°34' E 002°38'0 0.0
2014-Aug-29 20:33N 39°34' E 002°38'0 0.0
2014-Aug-29 19:33N 39°34' E 002°38'0 0.0
2014-Aug-29 18:34N 39°34' E 002°38'0 0.0
2014-Aug-29 17:33N 39°34' E 002°38'0 0.0
2014-Aug-29 16:33N 39°34' E 002°38'0 0.0
2014-Aug-29 15:33N 39°34' E 002°38'0 0.0
2014-Aug-29 14:33N 39°34' E 002°38'0 0.0
2014-Aug-29 13:33N 39°34' E 002°38'0 0.0
2014-Aug-29 12:33N 39°34' E 002°38'0 0.0
2014-Aug-29 11:33N 39°34' E 002°38'0 0.0
2014-Aug-29 10:33N 39°34' E 002°38'0 0.0
2014-Aug-29 09:33N 39°34' E 002°38'0 0.0
2014-Aug-29 08:33N 39°34' E 002°38'0 0.0
2014-Aug-29 07:33N 39°34' E 002°38'0 0.0
2014-Aug-29 06:33N 39°34' E 002°38'1 1.2
2014-Aug-29 05:33N 39°33' E 002°39'10 9.6
2014-Aug-29 04:33N 39°26' E 002°30'1615.8
2014-Aug-29 03:33N 39°25' E 002°09'1616.0
2014-Aug-29 02:33N 39°26' E 001°48'1616.1
2014-Aug-29 01:33N 39°26' E 001°28'8211.5
2014-Aug-28 18:25N 39°26' W 000°19'1 1.5
2014-Aug-28 17:33N 39°27' W 000°19'0 0.0
2014-Aug-28 14:13N 39°27' W 000°19'0 0.0
2014-Aug-28 13:31N 39°27' W 000°19'0 0.0
2014-Aug-28 12:31N 39°27' W 000°19'0 0.0
2014-Aug-28 11:31N 39°27' W 000°19'0 0.0
2014-Aug-28 10:25N 39°27' W 000°19'0 0.0
2014-Aug-28 08:07N 39°27' W 000°19'0 0.0
2014-Aug-28 07:31N 39°27' W 000°19'0 0.0
2014-Aug-27 18:31N 39°27' W 000°19'0 0.1
2014-Aug-27 15:16N 39°27' W 000°19'0 0.0
2014-Aug-27 08:23N 39°27' W 000°19'0 0.0
2014-Aug-26 21:23N 39°27' W 000°19'0 0.1
2014-Aug-26 19:25N 39°27' W 000°19'0 0.1
2014-Aug-26 16:28N 39°27' W 000°19'0 0.2
2014-Aug-26 15:30N 39°27' W 000°19'0 0.1
2014-Aug-26 14:33N 39°27' W 000°19'0 0.5
2014-Aug-26 13:33N 39°28' W 000°19'1 0.4
2014-Aug-26 12:20N 39°27' W 000°19'1 0.8
2014-Aug-26 11:26N 39°28' W 000°20'1 0.7
2014-Aug-26 10:32N 39°28' W 000°19'1 0.3
2014-Aug-26 08:28N 39°28' W 000°19'0 0.4
2014-Aug-26 07:30N 39°27' W 000°19'0 0.3
2014-Aug-26 06:18N 39°27' W 000°19'0 0.3
2014-Aug-26 05:24N 39°27' W 000°18'0 0.4
2014-Aug-26 04:22N 39°27' W 000°19'0 0.2
2014-Aug-26 03:10N 39°27' W 000°19'0 0.3
2014-Aug-26 02:29N 39°27' W 000°19'0 0.2
2014-Aug-26 01:14N 39°27' W 000°19'0 0.1
2014-Aug-25 23:33N 39°27' W 000°19'0 0.4
2014-Aug-25 22:26N 39°28' W 000°19'0 0.1
2014-Aug-25 20:11N 39°28' W 000°19'0 0.4
2014-Aug-25 19:30N 39°28' W 000°19'0 0.3
2014-Aug-25 18:27N 39°27' W 000°19'0 0.1
2014-Aug-25 17:29N 39°27' W 000°19'0 0.1
2014-Aug-25 15:16N 39°27' W 000°19'0 0.3
2014-Aug-25 14:27N 39°27' W 000°19'0 0.3
2014-Aug-25 13:16N 39°28' W 000°19'1 1.0
2014-Aug-25 12:31N 39°27' W 000°19'1 0.9
2014-Aug-25 11:18N 39°28' W 000°20'1 0.9
2014-Aug-25 10:33N 39°28' W 000°19'1 0.5
2014-Aug-25 09:26N 39°27' W 000°19'0 0.2
2014-Aug-25 08:33N 39°28' W 000°19'0 0.3
2014-Aug-25 07:18N 39°27' W 000°19'0 0.3
2014-Aug-25 06:29N 39°27' W 000°19'0 0.3
2014-Aug-25 05:24N 39°27' W 000°19'0 0.1
2014-Aug-25 04:26N 39°27' W 000°19'0 0.2
2014-Aug-25 03:32N 39°27' W 000°19'0 0.2
2014-Aug-25 02:29N 39°27' W 000°19'0 0.4
2014-Aug-25 01:28N 39°27' W 000°19'0 0.1
2014-Aug-25 00:24N 39°27' W 000°19'0 0.3
2014-Aug-24 23:24N 39°27' W 000°19'0 0.1
2014-Aug-24 22:21N 39°27' W 000°19'0 0.3
2014-Aug-24 21:29N 39°27' W 000°19'0 0.1
2014-Aug-24 20:33N 39°27' W 000°19'0 0.4
2014-Aug-24 19:31N 39°28' W 000°19'0 0.3
2014-Aug-24 18:29N 39°27' W 000°19'0 0.1
2014-Aug-24 14:21N 39°28' W 000°19'0 0.2
2014-Aug-24 13:29N 39°28' W 000°19'1 0.7
2014-Aug-24 12:26N 39°27' W 000°19'0 0.5
2014-Aug-24 11:33N 39°27' W 000°19'0 0.0
2014-Aug-24 10:33N 39°27' W 000°19'0 0.0
2014-Aug-24 09:21N 39°27' W 000°19'0 0.0
2014-Aug-24 08:27N 39°27' W 000°19'0 0.0
2014-Aug-24 07:27N 39°27' W 000°19'0 0.0
2014-Aug-24 06:33N 39°27' W 000°19'0 0.0
2014-Aug-24 05:33N 39°27' W 000°19'0 0.0
2014-Aug-24 04:33N 39°27' W 000°19'0 0.0
2014-Aug-24 03:33N 39°27' W 000°19'0 0.0
2014-Aug-24 02:21N 39°27' W 000°19'  
Track history (hours):
 
Tides and Currents Weather Stations Pressure Air Temp Water Temp Dewpoint Dewpoint Depression Visibility Wind Speed Wind Dir Waves Ship Positions

Superfast Baleares

Last reported at 2014-Sep-02 20:19 UTC. Time now 2014-Sep-02 21:15 UTC.
Position N 41°02' E 002°15'.

Length 210 m; draft 6.2 m.

Type: Ship (hazmat cat A). MMSI: 225405000.

Date/timePositionNaut miles runAvg speedWind from/ knotsBaromVisibWave heightAir tempDewpointWater temp
2014-Sep-02 20:19N 41°02' E 002°15'8 9.8
2014-Sep-02 19:31N 41°10' E 002°15'1110.2
2014-Sep-02 18:28N 41°20' E 002°13'2 2.2
2014-Sep-02 17:29N 41°22' E 002°11'0 0.0
2014-Sep-02 14:25N 41°22' E 002°11'89 6.0
2014-Sep-01 23:32N 39°54' E 001°53'3114.3
2014-Sep-01 21:23N 39°24' E 001°47'1411.6
2014-Sep-01 20:12N 39°10' E 001°44'1910.8
2014-Sep-01 18:28N 38°55' E 001°30'3 2.9
2014-Sep-01 17:32N 38°54' E 001°27'  
2014-Aug-30 06:05N 38°54' E 001°27'2 4.6
2014-Aug-30 05:33N 38°54' E 001°30'4 3.9
2014-Aug-30 04:34N 38°56' E 001°34'10 9.6
2014-Aug-30 03:33N 39°02' E 001°45'10 9.8
2014-Aug-30 02:33N 39°07' E 001°55'1010.1
2014-Aug-30 01:33N 39°13' E 002°05'1010.1
2014-Aug-30 00:34N 39°19' E 002°16'10 9.9
2014-Aug-29 23:33N 39°23' E 002°27'10 9.9
2014-Aug-29 22:33N 39°30' E 002°37'4 3.7
2014-Aug-29 21:33N 39°34' E 002°38'0 0.0
2014-Aug-29 20:33N 39°34' E 002°38'0 0.0
2014-Aug-29 19:33N 39°34' E 002°38'0 0.0
2014-Aug-29 18:34N 39°34' E 002°38'0 0.0
2014-Aug-29 17:33N 39°34' E 002°38'0 0.0
2014-Aug-29 16:33N 39°34' E 002°38'0 0.0
2014-Aug-29 15:33N 39°34' E 002°38'0 0.0
2014-Aug-29 14:33N 39°34' E 002°38'0 0.0
2014-Aug-29 13:33N 39°34' E 002°38'0 0.0
2014-Aug-29 12:33N 39°34' E 002°38'0 0.0
2014-Aug-29 11:33N 39°34' E 002°38'0 0.0
2014-Aug-29 10:33N 39°34' E 002°38'0 0.0
2014-Aug-29 09:33N 39°34' E 002°38'0 0.0
2014-Aug-29 08:33N 39°34' E 002°38'0 0.0
2014-Aug-29 07:33N 39°34' E 002°38'0 0.0
2014-Aug-29 06:33N 39°34' E 002°38'1 1.2
2014-Aug-29 05:33N 39°33' E 002°39'10 9.6
2014-Aug-29 04:33N 39°26' E 002°30'1615.8
2014-Aug-29 03:33N 39°25' E 002°09'1616.0
2014-Aug-29 02:33N 39°26' E 001°48'1616.1
2014-Aug-29 01:33N 39°26' E 001°28'8211.5
2014-Aug-28 18:25N 39°26' W 000°19'1 1.5
2014-Aug-28 17:33N 39°27' W 000°19'0 0.0
2014-Aug-28 14:13N 39°27' W 000°19'0 0.0
2014-Aug-28 13:31N 39°27' W 000°19'0 0.0
2014-Aug-28 12:31N 39°27' W 000°19'0 0.0
2014-Aug-28 11:31N 39°27' W 000°19'0 0.0
2014-Aug-28 10:25N 39°27' W 000°19'0 0.0
2014-Aug-28 08:07N 39°27' W 000°19'0 0.0
2014-Aug-28 07:31N 39°27' W 000°19'0 0.0
2014-Aug-27 18:31N 39°27' W 000°19'0 0.1
2014-Aug-27 15:16N 39°27' W 000°19'0 0.0
2014-Aug-27 08:23N 39°27' W 000°19'0 0.0
2014-Aug-26 21:23N 39°27' W 000°19'0 0.1
2014-Aug-26 19:25N 39°27' W 000°19'0 0.1
2014-Aug-26 16:28N 39°27' W 000°19'0 0.2
2014-Aug-26 15:30N 39°27' W 000°19'0 0.1
2014-Aug-26 14:33N 39°27' W 000°19'0 0.5
2014-Aug-26 13:33N 39°28' W 000°19'1 0.4
2014-Aug-26 12:20N 39°27' W 000°19'1 0.8
2014-Aug-26 11:26N 39°28' W 000°20'1 0.7
2014-Aug-26 10:32N 39°28' W 000°19'1 0.3
2014-Aug-26 08:28N 39°28' W 000°19'0 0.4
2014-Aug-26 07:30N 39°27' W 000°19'0 0.3
2014-Aug-26 06:18N 39°27' W 000°19'0 0.3
2014-Aug-26 05:24N 39°27' W 000°18'0 0.4
2014-Aug-26 04:22N 39°27' W 000°19'0 0.2
2014-Aug-26 03:10N 39°27' W 000°19'0 0.3
2014-Aug-26 02:29N 39°27' W 000°19'0 0.2
2014-Aug-26 01:14N 39°27' W 000°19'0 0.1
2014-Aug-25 23:33N 39°27' W 000°19'0 0.4
2014-Aug-25 22:26N 39°28' W 000°19'0 0.1
2014-Aug-25 20:11N 39°28' W 000°19'0 0.4
2014-Aug-25 19:30N 39°28' W 000°19'0 0.3
2014-Aug-25 18:27N 39°27' W 000°19'0 0.1
2014-Aug-25 17:29N 39°27' W 000°19'0 0.1
2014-Aug-25 15:16N 39°27' W 000°19'0 0.3
2014-Aug-25 14:27N 39°27' W 000°19'0 0.3
2014-Aug-25 13:16N 39°28' W 000°19'1 1.0
2014-Aug-25 12:31N 39°27' W 000°19'1 0.9
2014-Aug-25 11:18N 39°28' W 000°20'1 0.9
2014-Aug-25 10:33N 39°28' W 000°19'1 0.5
2014-Aug-25 09:26N 39°27' W 000°19'0 0.2
2014-Aug-25 08:33N 39°28' W 000°19'0 0.3
2014-Aug-25 07:18N 39°27' W 000°19'0 0.3
2014-Aug-25 06:29N 39°27' W 000°19'0 0.3
2014-Aug-25 05:24N 39°27' W 000°19'0 0.1
2014-Aug-25 04:26N 39°27' W 000°19'0 0.2
2014-Aug-25 03:32N 39°27' W 000°19'0 0.2
2014-Aug-25 02:29N 39°27' W 000°19'0 0.4
2014-Aug-25 01:28N 39°27' W 000°19'0 0.1
2014-Aug-25 00:24N 39°27' W 000°19'0 0.3
2014-Aug-24 23:24N 39°27' W 000°19'0 0.1
2014-Aug-24 22:21N 39°27' W 000°19'0 0.3
2014-Aug-24 21:29N 39°27' W 000°19'0 0.1
2014-Aug-24 20:33N 39°27' W 000°19'0 0.4
2014-Aug-24 19:31N 39°28' W 000°19'0 0.3
2014-Aug-24 18:29N 39°27' W 000°19'0 0.1
2014-Aug-24 14:21N 39°28' W 000°19'0 0.2
2014-Aug-24 13:29N 39°28' W 000°19'1 0.7
2014-Aug-24 12:26N 39°27' W 000°19'0 0.5
2014-Aug-24 11:33N 39°27' W 000°19'0 0.0
2014-Aug-24 10:33N 39°27' W 000°19'0 0.0
2014-Aug-24 09:21N 39°27' W 000°19'0 0.0
2014-Aug-24 08:27N 39°27' W 000°19'0 0.0
2014-Aug-24 07:27N 39°27' W 000°19'0 0.0
2014-Aug-24 06:33N 39°27' W 000°19'0 0.0
2014-Aug-24 05:33N 39°27' W 000°19'0 0.0
2014-Aug-24 04:33N 39°27' W 000°19'0 0.0
2014-Aug-24 03:33N 39°27' W 000°19'0 0.0
2014-Aug-24 02:21N 39°27' W 000°19'  

Dump ship's entire track history